Adak, Alaska
Current Conditions -  °F | °C
As of 3:16 PM on Friday 31 Oct 2014 (Local Time) from PADK Reporting Station
Broken Clouds Broken Clouds  
Wind Chill: 34°   Ceiling: 4800
Heat Index: 45°   Visibility: 10mi
Dew Point: 32°   Wind: 37mph
Humidity: 61%   Direction: 260°W
Pressure: 29.3"   Gusts: 46mph
Location:  51.88°N, 176.66°W
Report Text: PADK 010016Z AUTO 26032G40KT 10SM FEW029 SCT038 BKN048 07/00 A2930 RMK AO1
Loading
Personal Weather Stations






























Interactive Weather Map
Tropical Storm Tracking
New forecast layout! Learn more

10-Day Weather Forecast

Advertisements
Track Severe Weather on mobile